首页
METAR-TAF:

METAR-TAF

机场 :

蘇瀑支線機場

蘇瀑, 南达科他州, 美国

纬度: 43-34-37N, 经度: 096-45-13W, 海拔: 435米

当前天气观测

该预报发布于1小时和8分钟前的16:56 UTC
风速3节,风向东转东南
温度 28°C
湿度 45%
气压 1009 hPa
能見度: 16.1公里
少量云层高于5000英尺
散云层高于15000英尺
多云层高于25000英尺

METAR: KFSD 041656Z 12003KT 10SM FEW050 SCT150 BKN250 28/15 A2981 RMK AO2 SLP085 T02780150

时间: 13:04 (18:04 UTC)

预报

该预报发布于6小时和25分钟前的11:39 UTC
预报有效从04日的 12点(UTC)到 05日的 12点(UTC)
风速4节,风向多变
能見度: 10公里
少量云层高于10000英尺
多云层高于15000英尺
附近有阵雨
从 04日的 1500点(UTC)
风速5节,风向东转东北
能見度: 10公里
散云层高于12000英尺
从 05日的 0200点(UTC)
风速5节,风向多变
能見度: 10公里
散云层高于10000英尺
从 05日的 0500点(UTC)
风速7节,风向
能見度: 10公里
多云层高于10000英尺
附近有阵雨
从 05日的 0900点(UTC)
风速5节,风向多变
能見度: 10公里
天空无云

TAF: KFSD 041139Z 0412/0512 VRB04KT P6SM VCSH FEW100 BKN150 FM041500 07005KT P6SM SCT120 FM050200 VRB05KT P6SM SCT100 FM050500 35007KT P6SM VCSH BKN100 FM050900 VRB05KT P6SM SKC

超过4000个机场的气象观测和天气预报(METAR&TAF报告)。

可查询的气象台以黄色和红色小点在地图上表示。

将鼠标移到小点上方,可查看气象台名称。

然后点击查看天气观测和预报。

如需切换地图:点击带黑十字的绿色按钮放大地图;点击带横线的绿色按钮缩小地图;或者点击绿色箭头查看邻近地区的地图。


METAR-TAF: